Time;durP1;ratioP1;P1;durP2;ratioP2;P2;SDS_P1;SDS_P2;PMS_P1;PMS_P2;Temp;Humidity;BMP_temperature;BMP_pressure;BME280_temperature;BME280_humidity;BME280_pressure;Samples;Min_cycle;Max_cycle;Signal;HPM_P1;HPM_P2
2021/12/24 00:01:18;;;;;;;49.17;31.98;;;;;;;6.50;92.56;100428.41;5006375;28;20028;-70
2021/12/24 00:03:44;;;;;;;41.58;29.30;;;;;;;6.51;92.72;100431.00;5007426;28;20366;-72
2021/12/24 00:06:11;;;;;;;44.53;30.20;;;;;;;6.53;93.02;100433.59;5008993;28;20038;-72
2021/12/24 00:08:37;;;;;;;41.65;29.75;;;;;;;6.54;93.11;100427.53;5002739;28;20037;-71
2021/12/24 00:11:04;;;;;;;44.35;29.60;;;;;;;6.54;92.48;100425.78;5010017;28;20478;-70
2021/12/24 00:13:39;;;;;;;42.63;27.58;;;;;;;6.56;92.29;100421.44;5001589;28;20479;-71
2021/12/24 00:16:10;;;;;;;40.55;27.55;;;;;;;6.58;92.52;100416.25;5003471;28;20034;-72
2021/12/24 00:18:45;;;;;;;42.05;27.23;;;;;;;6.62;92.60;100424.91;4988030;28;20490;-72
2021/12/24 00:37:28;;;;;;;35.63;25.98;;;;;;;6.67;92.58;100407.53;4985682;28;20052;-70
2021/12/24 00:40:10;;;;;;;35.00;26.45;;;;;;;6.69;92.27;100413.59;4995784;28;20045;-72
2021/12/24 00:42:36;;;;;;;31.30;24.73;;;;;;;6.71;92.58;100410.13;4999777;28;20048;-72
2021/12/24 00:45:03;;;;;;;30.38;24.17;;;;;;;6.73;91.95;100402.31;4994986;28;20034;-71
2021/12/24 00:47:29;;;;;;;32.33;25.05;;;;;;;6.74;92.86;100404.06;4992622;28;20490;-71
2021/12/24 00:49:56;;;;;;;34.17;24.40;;;;;;;6.77;92.96;100396.22;4996932;28;20092;-73
2021/12/24 00:55:06;;;;;;;30.35;24.08;;;;;;;6.80;92.57;100398.81;5010784;28;20060;-72
2021/12/24 00:57:34;;;;;;;34.78;26.10;;;;;;;6.83;93.19;100397.94;4996586;28;20469;-71
2021/12/24 00:59:59;;;;;;;30.35;23.77;;;;;;;6.82;92.53;100397.06;5013349;28;20477;-71
2021/12/24 01:02:25;;;;;;;32.42;24.45;;;;;;;6.84;93.13;100394.44;4984033;28;20493;-73
2021/12/24 01:04:50;;;;;;;36.30;27.25;;;;;;;6.86;92.40;100392.72;4988570;28;20482;-71
2021/12/24 01:07:16;;;;;;;36.53;25.55;;;;;;;6.86;92.47;100396.19;5010865;28;20088;-72
2021/12/24 01:09:41;;;;;;;33.20;25.42;;;;;;;6.86;92.29;100392.72;5013027;28;20116;-71
2021/12/24 01:12:07;;;;;;;29.77;25.08;;;;;;;6.86;92.10;100388.38;4980219;28;20069;-71
2021/12/24 01:14:33;;;;;;;34.53;25.70;;;;;;;6.85;92.44;100383.16;4977483;28;20387;-73
2021/12/24 01:17:12;;;;;;;30.35;23.95;;;;;;;6.87;92.57;100386.66;4966840;28;20501;-71
2021/12/24 01:19:42;;;;;;;34.08;26.88;;;;;;;6.89;93.05;100387.50;4997603;28;20446;-72
2021/12/24 01:24:53;;;;;;;35.80;25.67;;;;;;;6.90;92.70;100384.03;5000882;28;20475;-72
2021/12/24 01:38:12;;;;;;;33.15;26.63;;;;;;;7.02;93.11;100375.28;5010734;28;20049;-73
2021/12/24 01:43:15;;;;;;;34.13;28.77;;;;;;;7.04;93.04;100384.84;5009265;28;20061;-72
2021/12/24 01:45:47;;;;;;;39.20;31.30;;;;;;;7.06;92.84;100379.59;4978737;28;20493;-71
2021/12/24 01:48:12;;;;;;;37.10;30.70;;;;;;;7.09;93.05;100382.19;5011047;28;20032;-71
2021/12/24 01:50:42;;;;;;;41.55;30.38;;;;;;;7.10;93.14;100386.53;4993712;28;20037;-73
2021/12/24 01:53:08;;;;;;;41.10;32.42;;;;;;;7.12;93.27;100390.00;5009456;28;20041;-73
2021/12/24 01:55:36;;;;;;;43.42;33.10;;;;;;;7.13;92.87;100391.75;4994005;28;20148;-72
2021/12/24 01:58:02;;;;;;;49.80;33.45;;;;;;;7.17;93.16;100393.47;5007195;28;20025;-71
2021/12/24 02:00:32;;;;;;;50.53;34.50;;;;;;;7.19;93.64;100383.88;4993799;28;20360;-71
2021/12/24 02:02:58;;;;;;;48.70;36.58;;;;;;;7.23;92.66;100383.00;5010255;28;20398;-72
2021/12/24 02:05:23;;;;;;;57.63;39.25;;;;;;;7.25;93.36;100382.97;4991214;28;20044;-72
2021/12/24 02:07:52;;;;;;;54.17;39.65;;;;;;;7.28;93.38;100380.34;4993038;28;20042;-72
2021/12/24 02:10:19;;;;;;;58.47;41.05;;;;;;;7.28;93.04;100383.84;4980495;28;20034;-71
2021/12/24 02:12:46;;;;;;;55.80;41.20;;;;;;;7.32;93.14;100373.41;4981434;28;20499;-72
2021/12/24 02:15:23;;;;;;;61.05;44.05;;;;;;;7.33;92.84;100378.59;4992025;28;20072;-73
2021/12/24 02:28:53;;;;;;;59.13;43.58;;;;;;;7.46;92.96;100376.78;5002410;28;20465;-72
2021/12/24 02:31:24;;;;;;;57.25;42.42;;;;;;;7.48;93.01;100371.56;5002367;28;20830;-72
2021/12/24 02:33:49;;;;;;;;;;;;;;;7.53;93.01;100370.66;5009458;28;20149;-71
2021/12/24 02:36:15;;;;;;;51.70;39.10;;;;;;;7.52;92.67;100368.91;4992909;28;20385;-72
2021/12/24 02:38:41;;;;;;;56.33;39.90;;;;;;;7.53;92.85;100368.03;5008508;28;20026;-71
2021/12/24 02:41:09;;;;;;;53.60;40.75;;;;;;;7.56;92.59;100370.63;4978672;28;20062;-71
2021/12/24 02:43:36;;;;;;;54.58;40.28;;;;;;;7.56;93.19;100368.03;5011330;28;20036;-72
2021/12/24 02:46:23;;;;;;;52.35;40.65;;;;;;;7.57;93.36;100372.38;5009090;28;20049;-71
2021/12/24 02:54:10;;;;;;;58.63;41.65;;;;;;;7.58;93.07;100366.25;5008236;28;20226;-72
2021/12/24 02:56:46;;;;;;;55.92;41.47;;;;;;;7.57;93.09;100354.13;5007430;28;20553;-72
2021/12/24 02:59:13;;;;;;;62.40;45.40;;;;;;;7.58;92.94;100348.00;4985882;28;20041;-71
2021/12/24 03:01:41;;;;;;;61.25;46.58;;;;;;;7.57;92.89;100346.28;5010542;28;20512;-72
2021/12/24 03:04:08;;;;;;;68.03;48.03;;;;;;;7.58;92.80;100354.97;5009614;28;20116;-72
2021/12/24 03:06:37;;;;;;;66.28;48.40;;;;;;;7.57;92.66;100355.84;5004188;28;20196;-72
2021/12/24 03:09:08;;;;;;;64.88;46.50;;;;;;;7.57;93.44;100356.72;5002649;28;20382;-72
2021/12/24 03:11:35;;;;;;;70.70;50.75;;;;;;;7.59;93.07;100352.34;5009890;28;20034;-73
2021/12/24 03:14:02;;;;;;;64.22;47.75;;;;;;;7.60;92.88;100346.25;5002305;28;20168;-72
2021/12/24 03:16:28;;;;;;;77.78;52.00;;;;;;;7.61;93.55;100345.41;5000699;28;20029;-72
2021/12/24 03:18:54;;;;;;;70.20;50.22;;;;;;;7.65;93.48;100345.38;4995813;28;20038;-72
2021/12/24 03:21:31;;;;;;;71.43;51.35;;;;;;;7.64;93.32;100347.09;4989466;28;20030;-72
2021/12/24 03:26:36;;;;;;;80.05;51.45;;;;;;;7.67;93.55;100349.69;4989911;28;20037;-73
2021/12/24 03:29:09;;;;;;;99.15;54.55;;;;;;;7.70;93.40;100356.59;5002758;28;20049;-73
2021/12/24 03:31:37;;;;;;;78.47;52.35;;;;;;;7.68;92.77;100351.41;5002310;28;20548;-73
2021/12/24 03:34:07;;;;;;;79.95;52.20;;;;;;;7.73;92.86;100367.00;5006626;28;20377;-72
2021/12/24 03:36:33;;;;;;;76.72;51.70;;;;;;;7.71;92.67;100368.78;4995934;28;20033;-72
2021/12/24 03:38:58;;;;;;;76.63;53.40;;;;;;;7.74;92.57;100363.53;5007384;28;20030;-72
2021/12/24 03:41:24;;;;;;;86.30;53.28;;;;;;;7.75;93.55;100375.72;4976395;28;20034;-73
2021/12/24 03:43:51;;;;;;;87.25;52.38;;;;;;;7.78;92.76;100370.47;4985795;28;20069;-71
2021/12/24 03:46:20;;;;;;;83.82;51.88;;;;;;;7.79;93.10;100369.59;5005149;28;20030;-72
2021/12/24 03:48:59;;;;;;;79.07;50.27;;;;;;;7.80;93.11;100371.31;5006413;28;20460;-71
2021/12/24 03:56:41;;;;;;;77.85;51.40;;;;;;;7.84;92.70;100367.81;5005056;28;20077;-72
2021/12/24 03:59:08;;;;;;;75.30;46.42;;;;;;;7.85;92.62;100377.38;4990929;28;20497;-72
2021/12/24 04:01:37;;;;;;;66.88;45.72;;;;;;;7.86;92.59;100376.50;4986506;28;20037;-71
2021/12/24 04:04:03;;;;;;;67.22;42.67;;;;;;;7.88;92.55;100369.50;4992230;28;20103;-72
2021/12/24 04:06:30;;;;;;;63.08;40.78;;;;;;;7.89;92.57;100368.63;4993382;28;20061;-72
2021/12/24 04:08:55;;;;;;;74.18;43.17;;;;;;;7.89;92.80;100368.63;5009312;28;20505;-73
2021/12/24 04:11:21;;;;;;;62.25;41.13;;;;;;;7.92;92.98;100368.63;5008003;28;20065;-71
2021/12/24 04:13:46;;;;;;;64.03;38.45;;;;;;;7.93;92.14;100370.34;5009477;28;20507;-72
2021/12/24 04:16:12;;;;;;;61.33;37.78;;;;;;;7.94;92.43;100363.38;4974278;28;20464;-73
2021/12/24 04:18:49;;;;;;;53.65;35.72;;;;;;;7.96;92.28;100365.09;4991787;28;20038;-72
2021/12/24 04:26:48;;;;;;;53.03;32.90;;;;;;;8.01;91.80;100366.81;5008477;28;20041;-72
2021/12/24 04:29:14;;;;;;;40.28;26.83;;;;;;;7.98;91.45;100367.69;4990165;28;20030;-71
2021/12/24 04:34:05;;;;;;;45.70;27.50;;;;;;;8.00;91.80;100376.34;4997789;28;20402;-71
2021/12/24 05:03:09;;;;;;;36.65;19.10;;;;;;;8.04;90.43;100361.56;5002865;28;20063;-72
2021/12/24 05:05:46;;;;;;;31.20;19.03;;;;;;;8.06;90.31;100359.78;4986891;28;20029;-72
2021/12/24 05:10:43;;;;;;;35.15;18.13;;;;;;;8.04;90.58;100362.41;4998368;28;20030;-73
2021/12/24 05:13:13;;;;;;;32.50;16.55;;;;;;;8.04;90.56;100359.81;4983669;28;20541;-72
2021/12/24 05:15:40;;;;;;;28.23;17.00;;;;;;;8.06;90.43;100362.41;5012918;28;20049;-72
2021/12/24 05:18:33;;;;;;;26.23;15.02;;;;;;;8.04;89.99;100372.00;5010930;28;20040;-72
2021/12/24 05:23:42;;;;;;;23.95;13.55;;;;;;;8.04;90.11;100372.00;5012068;28;20044;-72
2021/12/24 05:26:09;;;;;;;33.28;14.52;;;;;;;8.05;90.27;100378.97;4995866;28;20021;-72
2021/12/24 05:28:36;;;;;;;27.40;14.48;;;;;;;8.01;89.77;100372.88;5010855;28;20041;-72
2021/12/24 05:31:02;;;;;;;25.15;14.65;;;;;;;8.01;89.91;100374.63;5007630;28;20099;-73
2021/12/24 05:33:28;;;;;;;25.45;13.77;;;;;;;8.01;89.93;100377.25;4971603;28;20050;-72
2021/12/24 05:35:56;;;;;;;16.67;12.82;;;;;;;8.01;89.91;100377.25;4989455;28;20230;-73
2021/12/24 05:38:25;;;;;;;18.05;13.80;;;;;;;8.00;89.95;100378.97;5005341;28;20037;-72
2021/12/24 05:40:51;;;;;;;30.30;15.38;;;;;;;8.00;89.81;100389.41;4992611;28;20034;-71
2021/12/24 05:43:16;;;;;;;27.25;14.73;;;;;;;8.01;89.56;100387.69;4980775;28;20405;-73
2021/12/24 05:45:42;;;;;;;28.27;14.43;;;;;;;8.00;89.80;100388.56;4988280;28;20061;-72
2021/12/24 05:48:08;;;;;;;25.90;14.40;;;;;;;7.99;89.43;100390.31;4989062;28;20044;-73
2021/12/24 05:50:37;;;;;;;30.92;14.77;;;;;;;8.00;89.53;100391.16;4985769;28;20038;-72
2021/12/24 05:53:08;;;;;;;24.15;14.70;;;;;;;7.98;89.71;100391.19;4984597;28;20046;-72
2021/12/24 05:55:35;;;;;;;27.38;14.20;;;;;;;7.97;89.36;100390.31;5000945;28;20437;-73
2021/12/24 05:58:08;;;;;;;31.30;15.38;;;;;;;7.98;89.48;100399.00;4980056;28;20042;-73
2021/12/24 06:00:48;;;;;;;25.92;13.30;;;;;;;7.97;89.19;100398.16;5005894;28;20029;-72
2021/12/24 06:03:21;;;;;;;32.38;13.82;;;;;;;7.97;88.88;100397.25;4981094;28;20417;-73
2021/12/24 06:05:52;;;;;;;24.92;13.82;;;;;;;7.95;89.13;100393.81;5010006;28;20044;-72
2021/12/24 06:08:18;;;;;;;26.90;13.20;;;;;;;7.94;88.56;100390.34;5010937;28;20042;-72
2021/12/24 06:10:45;;;;;;;26.33;12.50;;;;;;;7.94;89.10;100395.56;5004930;28;20048;-72
2021/12/24 06:13:11;;;;;;;25.75;13.20;;;;;;;7.92;88.60;100394.69;5005225;28;20037;-71
2021/12/24 06:15:51;;;;;;;24.50;13.48;;;;;;;7.92;88.85;100393.84;5003665;28;20104;-72
2021/12/24 06:18:24;;;;;;;27.25;12.65;;;;;;;7.90;88.56;100393.88;4980624;28;20533;-71
2021/12/24 06:20:53;;;;;;;28.63;13.55;;;;;;;7.89;88.86;100388.66;4979405;28;20038;-72
2021/12/24 06:23:40;;;;;;;26.67;12.80;;;;;;;7.86;88.88;100394.75;5004127;28;20045;-72
2021/12/24 06:26:08;;;;;;;25.80;12.75;;;;;;;7.86;88.48;100405.19;4996887;28;20389;-71
2021/12/24 06:28:41;;;;;;;25.95;11.82;;;;;;;7.83;88.72;100405.22;5007296;28;20030;-72
2021/12/24 06:31:13;;;;;;;27.38;13.20;;;;;;;7.83;88.47;100404.34;4992136;28;20566;-72
2021/12/24 06:33:45;;;;;;;25.35;12.68;;;;;;;7.79;89.12;100412.19;5004774;28;20033;-72
2021/12/24 06:36:12;;;;;;;28.13;14.90;;;;;;;7.77;88.92;100400.03;4999289;28;20064;-71
2021/12/24 06:38:41;;;;;;;27.80;13.43;;;;;;;7.74;88.74;100400.94;5010141;28;20453;-71
2021/12/24 06:41:09;;;;;;;25.98;14.13;;;;;;;7.75;88.28;100402.66;4991817;28;20089;-72
2021/12/24 06:43:35;;;;;;;26.10;12.95;;;;;;;7.73;88.75;100393.09;4998133;28;20041;-72
2021/12/24 06:46:10;;;;;;;37.70;13.98;;;;;;;7.75;88.40;100397.44;4988108;28;20038;-72
2021/12/24 06:49:14;;;;;;;21.10;12.73;;;;;;;7.74;88.26;100400.94;5007645;28;20115;-72
2021/12/24 06:51:44;;;;;;;32.30;13.00;;;;;;;7.73;88.82;100403.53;5008896;28;20030;-72
2021/12/24 06:54:23;;;;;;;;;;;;;;;;;;;;;
2021/12/24 06:56:50;;;;;;;28.63;13.52;;;;;;;7.75;88.44;100407.00;5001716;28;20076;-73
2021/12/24 06:59:16;;;;;;;33.88;12.63;;;;;;;7.74;88.50;100400.06;4996400;28;20088;-72
2021/12/24 07:01:44;;;;;;;32.63;12.73;;;;;;;7.72;88.17;100402.69;5010250;28;20061;-72
2021/12/24 07:04:09;;;;;;;30.90;14.68;;;;;;;7.72;88.24;100397.47;5003552;28;20084;-72
2021/12/24 07:06:35;;;;;;;27.90;12.98;;;;;;;7.75;88.49;100401.78;4993163;28;20061;-72
2021/12/24 07:09:00;;;;;;;22.08;12.77;;;;;;;7.74;88.31;100405.28;4997457;28;20084;-72
2021/12/24 07:11:26;;;;;;;27.85;13.57;;;;;;;7.75;88.34;100394.81;4985363;28;20038;-72
2021/12/24 07:13:53;;;;;;;30.17;13.48;;;;;;;7.76;88.42;100395.72;4985066;28;20389;-71
2021/12/24 07:16:18;;;;;;;32.92;13.88;;;;;;;7.75;88.26;100391.38;4998703;28;20030;-71
2021/12/24 07:18:44;;;;;;;22.48;12.38;;;;;;;7.77;88.61;100393.09;4993008;28;20030;-72
2021/12/24 07:21:09;;;;;;;28.25;13.48;;;;;;;7.76;88.22;100395.72;4991981;28;20445;-72
2021/12/24 07:23:35;;;;;;;27.33;13.18;;;;;;;7.76;88.52;100393.09;5007885;28;20044;-72
2021/12/24 07:26:01;;;;;;;23.20;13.13;;;;;;;7.75;88.49;100400.03;4994046;28;20072;-73
2021/12/24 07:28:26;;;;;;;23.33;12.02;;;;;;;7.75;87.96;100396.56;5010457;28;20063;-71
2021/12/24 07:30:52;;;;;;;30.67;12.95;;;;;;;7.73;88.15;100404.41;4975293;28;20474;-73
2021/12/24 07:33:20;;;;;;;25.45;11.95;;;;;;;7.74;88.59;100410.50;5006796;28;20386;-73
2021/12/24 07:35:46;;;;;;;27.40;12.50;;;;;;;7.74;87.76;100420.91;5006032;28;20029;-73
2021/12/24 07:38:15;;;;;;;23.05;12.50;;;;;;;7.74;88.06;100418.31;5003831;28;20131;-72
2021/12/24 07:40:44;;;;;;;26.15;13.13;;;;;;;7.72;88.04;100420.94;5003409;28;20494;-72
2021/12/24 07:43:10;;;;;;;30.92;12.77;;;;;;;7.74;88.36;100420.91;5006378;28;20052;-72
2021/12/24 07:45:38;;;;;;;28.45;13.23;;;;;;;7.72;88.56;100418.31;4989825;28;20037;-72
2021/12/24 07:48:11;;;;;;;31.75;14.80;;;;;;;7.73;88.06;100430.50;4992558;28;20478;-72
2021/12/24 07:53:08;;;;;;;24.52;14.00;;;;;;;7.73;88.63;100416.56;5003821;28;20053;-72
2021/12/24 07:55:34;;;;;;;;;;;;;;;7.77;87.85;100415.69;5004658;28;20137;-72
2021/12/24 08:01:15;;;;;;;22.65;12.55;;;;;;;7.69;87.68;100414.88;5422309;23;20101;-74
2021/12/24 08:03:40;;;;;;;19.63;12.98;;;;;;;7.66;87.79;100422.69;4981926;28;20145;-75
2021/12/24 08:06:06;;;;;;;26.15;11.43;;;;;;;7.64;88.03;100417.50;4976263;28;20121;-74
2021/12/24 08:08:38;;;;;;;38.45;12.70;;;;;;;7.65;87.83;100413.16;4941474;28;20022;-77
2021/12/24 08:11:04;;;;;;;30.80;12.43;;;;;;;7.65;88.11;100421.84;5001657;28;20033;-77
2021/12/24 08:13:30;;;;;;;31.33;12.35;;;;;;;7.65;88.09;100416.63;4963008;28;20042;-74
2021/12/24 08:15:55;;;;;;;31.92;13.07;;;;;;;7.66;88.62;100417.50;4985391;28;20046;-76
2021/12/24 08:18:21;;;;;;;31.95;13.65;;;;;;;7.67;88.21;100404.47;4974877;28;20104;-76
2021/12/24 08:20:47;;;;;;;27.77;13.48;;;;;;;7.70;87.97;100404.44;4943160;28;20072;-77
2021/12/24 08:23:12;;;;;;;24.95;13.02;;;;;;;7.72;88.10;100401.81;4960626;28;20030;-77
2021/12/24 08:25:38;;;;;;;34.05;13.07;;;;;;;7.71;87.60;100400.94;4968603;28;20487;-76
2021/12/24 08:28:03;;;;;;;25.30;13.93;;;;;;;7.74;87.51;100400.94;4964776;28;20039;-77
2021/12/24 08:30:29;;;;;;;22.88;13.50;;;;;;;7.76;87.49;100408.75;4982967;28;20498;-76
2021/12/24 08:32:56;;;;;;;29.33;14.30;;;;;;;7.78;87.64;100401.75;4986630;28;20521;-76
2021/12/24 08:35:23;;;;;;;29.67;14.63;;;;;;;7.77;88.02;100400.91;4974372;28;20045;-76
2021/12/24 08:37:49;;;;;;;28.80;14.07;;;;;;;7.78;87.30;100396.56;4974163;28;20402;-77
2021/12/24 08:40:15;;;;;;;33.45;14.80;;;;;;;7.82;87.94;100408.69;4958812;28;20034;-77
2021/12/24 08:42:41;;;;;;;40.78;15.40;;;;;;;7.84;87.84;100409.53;4993942;28;20401;-75
2021/12/24 08:45:08;;;;;;;28.52;14.82;;;;;;;7.85;87.22;100406.06;4964450;28;20038;-75
2021/12/24 08:47:33;;;;;;;29.98;16.13;;;;;;;7.86;87.35;100404.31;4980639;28;20117;-76
2021/12/24 08:49:59;;;;;;;28.80;15.73;;;;;;;7.85;87.37;100403.44;4982504;28;20117;-77
2021/12/24 08:52:24;;;;;;;22.98;14.63;;;;;;;7.86;87.49;100404.31;4960485;28;20112;-77
2021/12/24 08:54:50;;;;;;;29.15;15.63;;;;;;;7.85;87.50;100405.22;4978085;28;20028;-76
2021/12/24 08:57:15;;;;;;;33.65;16.55;;;;;;;7.86;87.77;100404.31;4961308;28;20121;-77
2021/12/24 08:59:41;;;;;;;38.00;17.75;;;;;;;7.84;87.46;100388.66;4974118;28;20038;-77
2021/12/24 09:02:07;;;;;;;38.40;17.65;;;;;;;7.85;86.97;100402.59;4976547;28;20066;-76
2021/12/24 09:04:33;;;;;;;30.27;16.77;;;;;;;7.86;86.83;100394.75;4973707;28;20331;-78
2021/12/24 09:06:58;;;;;;;34.70;16.60;;;;;;;7.88;87.20;100393.00;4972692;28;20036;-77
2021/12/24 09:09:23;;;;;;;26.75;15.20;;;;;;;7.90;87.24;100390.38;4944676;28;20039;-76
2021/12/24 09:11:49;;;;;;;29.27;15.40;;;;;;;7.92;87.15;100379.03;4946544;28;20045;-76
2021/12/24 09:14:18;;;;;;;26.42;14.05;;;;;;;7.95;87.24;100383.38;4954316;28;20117;-76
2021/12/24 09:16:46;;;;;;;25.50;14.45;;;;;;;7.96;87.28;100391.19;4966168;28;20065;-76
2021/12/24 09:19:15;;;;;;;27.27;14.70;;;;;;;7.98;86.95;100389.41;4942630;28;20061;-77
2021/12/24 09:21:41;;;;;;;30.02;14.18;;;;;;;8.01;87.08;100393.75;4936662;28;20094;-76
2021/12/24 09:24:08;;;;;;;32.55;14.88;;;;;;;8.00;87.34;100393.78;4970326;28;20115;-78
2021/12/24 09:26:36;;;;;;;31.20;13.77;;;;;;;7.98;86.88;100393.78;4949918;28;20561;-76
2021/12/24 09:29:03;;;;;;;28.08;13.30;;;;;;;7.96;86.98;100387.72;4936454;28;20618;-76
2021/12/24 09:31:29;;;;;;;30.15;15.25;;;;;;;7.98;87.21;100385.97;4960199;28;20046;-76
2021/12/24 09:33:55;;;;;;;35.28;15.07;;;;;;;7.97;86.99;100398.16;4960296;28;20038;-77
2021/12/24 09:39:04;;;;;;;26.75;14.35;;;;;;;7.95;87.46;100393.81;5260744;22;20531;-72
2021/12/24 09:41:30;;;;;;;34.93;14.07;;;;;;;7.93;86.98;100399.06;4977189;28;20064;-73
2021/12/24 09:43:58;;;;;;;35.53;14.25;;;;;;;7.93;87.39;100396.44;4979770;28;20026;-72
2021/12/24 09:46:25;;;;;;;30.63;14.95;;;;;;;7.92;87.20;100394.69;4953182;28;20061;-73
2021/12/24 09:48:51;;;;;;;25.38;14.30;;;;;;;7.94;87.05;100397.28;4972912;28;20092;-72
2021/12/24 09:51:17;;;;;;;27.10;13.77;;;;;;;7.93;87.14;100391.22;4951872;28;20501;-73
2021/12/24 09:53:42;;;;;;;43.45;14.02;;;;;;;7.94;87.30;100392.97;4967746;28;20541;-73
2021/12/24 09:56:08;;;;;;;36.45;14.18;;;;;;;7.97;86.77;100389.44;4950756;28;20074;-73
2021/12/24 09:58:34;;;;;;;29.27;13.63;;;;;;;8.00;86.72;100388.56;4968070;28;20030;-72
2021/12/24 10:00:59;;;;;;;25.85;13.00;;;;;;;8.01;86.95;100390.28;4954360;28;20453;-73
2021/12/24 10:03:37;;;;;;;27.10;13.60;;;;;;;8.03;86.38;100385.91;4972765;28;20022;-72
2021/12/24 10:06:04;;;;;;;22.23;12.52;;;;;;;8.01;86.66;100387.69;4970163;28;20129;-73
2021/12/24 10:08:31;;;;;;;27.85;13.75;;;;;;;8.03;86.84;100392.03;4956988;28;20081;-72
2021/12/24 10:11:05;;;;;;;24.20;13.25;;;;;;;8.05;86.89;100384.16;4971210;28;20535;-73
2021/12/24 10:13:34;;;;;;;32.33;14.48;;;;;;;8.05;86.50;100385.03;4988115;28;20033;-72
2021/12/24 10:16:04;;;;;;;27.00;14.00;;;;;;;8.07;86.31;100382.41;4961658;28;20038;-73
2021/12/24 10:18:34;;;;;;;35.75;13.43;;;;;;;8.07;86.67;100382.41;4987917;28;20029;-73
2021/12/24 10:21:08;;;;;;;30.40;14.85;;;;;;;8.09;86.45;100391.94;4972959;28;20064;-72
2021/12/24 10:23:51;;;;;;;28.80;15.38;;;;;;;8.10;86.47;100388.47;4967405;28;20026;-73
2021/12/24 10:26:35;;;;;;;26.67;13.45;;;;;;;8.13;86.78;100391.06;4968508;28;20073;-73
2021/12/24 10:29:09;;;;;;;36.28;15.63;;;;;;;8.14;86.39;100386.69;4966170;28;20062;-73
2021/12/24 10:31:43;;;;;;;38.75;15.75;;;;;;;8.14;86.50;100384.94;4964102;28;20039;-73
2021/12/24 10:34:25;;;;;;;36.53;16.00;;;;;;;8.19;86.88;100378.81;4964338;28;20042;-72
2021/12/24 10:36:55;;;;;;;34.60;15.43;;;;;;;8.23;86.33;100378.78;4967743;28;20470;-72
2021/12/24 10:39:24;;;;;;;35.35;14.38;;;;;;;8.24;87.01;100375.28;4969353;28;20100;-72
2021/12/24 10:41:51;;;;;;;38.97;16.45;;;;;;;8.28;86.22;100376.13;4960503;28;20034;-72
2021/12/24 10:44:23;;;;;;;35.40;16.77;;;;;;;8.30;86.71;100371.75;4953187;28;20054;-73
2021/12/24 10:47:26;;;;;;;34.03;15.50;;;;;;;8.34;86.10;100378.66;4969027;28;20026;-73
2021/12/24 10:55:27;;;;;;;34.90;16.25;;;;;;;8.37;86.67;100365.59;4992054;28;20121;-72
2021/12/24 10:57:54;;;;;;;26.67;15.63;;;;;;;8.40;86.22;100375.97;4972646;28;20022;-72
2021/12/24 11:00:41;;;;;;;34.20;16.10;;;;;;;8.42;86.52;100366.41;4935554;28;20387;-73
2021/12/24 11:03:20;;;;;;;38.00;16.58;;;;;;;8.41;86.11;100376.88;4968121;28;20030;-73
2021/12/24 11:05:48;;;;;;;34.20;18.02;;;;;;;8.39;86.04;100369.06;4970422;28;20023;-73
2021/12/24 11:08:17;;;;;;;31.00;16.58;;;;;;;8.37;85.95;100364.72;4971796;28;20026;-72
2021/12/24 11:10:48;;;;;;;42.08;17.17;;;;;;;8.33;85.87;100374.31;4968121;28;20031;-72
2021/12/24 11:13:17;;;;;;;29.55;15.35;;;;;;;8.29;86.16;100372.66;4972140;28;20022;-73
2021/12/24 11:15:46;;;;;;;36.38;16.42;;;;;;;8.26;86.41;100372.66;4969403;28;20033;-73
2021/12/24 11:18:26;;;;;;;40.05;17.10;;;;;;;8.25;86.36;100384.84;4967640;28;20169;-73
2021/12/24 11:20:58;;;;;;;29.85;17.73;;;;;;;8.25;86.60;100370.94;4963998;28;20467;-73
2021/12/24 11:23:26;;;;;;;39.65;18.60;;;;;;;8.27;86.95;100375.25;4968573;28;20061;-72
2021/12/24 11:26:03;;;;;;;39.05;17.20;;;;;;;8.26;86.69;100372.66;4961507;28;20112;-73
2021/12/24 11:28:28;;;;;;;41.13;18.63;;;;;;;8.29;86.72;100376.09;4965757;28;20018;-74
2021/12/24 11:30:57;;;;;;;40.25;20.58;;;;;;;8.32;86.47;100372.59;4956044;28;20042;-72
2021/12/24 11:33:32;;;;;;;40.05;17.70;;;;;;;8.37;86.65;100372.56;4969824;28;20026;-73
2021/12/24 11:36:00;;;;;;;35.72;17.67;;;;;;;8.41;86.79;100371.66;4959189;28;20042;-73
2021/12/24 11:38:29;;;;;;;42.05;18.80;;;;;;;8.42;86.38;100374.25;4964839;28;20105;-73
2021/12/24 11:40:57;;;;;;;38.53;19.70;;;;;;;8.45;86.42;100378.59;4965806;28;20026;-73
2021/12/24 11:43:27;;;;;;;37.72;19.90;;;;;;;8.53;86.78;100374.16;4966628;28;20042;-73
2021/12/24 11:45:52;;;;;;;39.00;19.98;;;;;;;8.56;86.27;100371.53;4967390;28;20125;-73
2021/12/24 11:48:17;;;;;;;47.42;18.80;;;;;;;8.59;86.00;100371.50;4942081;28;20117;-72
2021/12/24 11:50:43;;;;;;;47.88;19.52;;;;;;;8.61;85.57;100368.84;4964399;28;20117;-73
2021/12/24 11:53:14;;;;;;;40.47;20.80;;;;;;;8.65;85.54;100365.34;4961735;28;20101;-73
2021/12/24 11:55:43;;;;;;;42.83;20.55;;;;;;;8.67;85.71;100360.94;4971570;28;20066;-73
2021/12/24 11:58:19;;;;;;;35.50;19.70;;;;;;;8.69;85.17;100367.00;4995455;28;20133;-73
2021/12/24 12:00:47;;;;;;;30.70;19.25;;;;;;;8.73;85.32;100358.25;4964125;28;20118;-73
2021/12/24 12:03:33;;;;;;;40.78;21.65;;;;;;;8.75;85.46;100355.63;4966116;28;20077;-73
2021/12/24 12:06:00;;;;;;;38.83;20.95;;;;;;;8.74;84.79;100356.53;4986292;28;20493;-74
2021/12/24 12:08:26;;;;;;;38.47;21.42;;;;;;;8.76;85.01;100358.22;4952620;28;20093;-73
2021/12/24 12:10:55;;;;;;;38.10;21.80;;;;;;;8.76;84.76;100358.22;4969248;28;20042;-73
2021/12/24 12:13:49;;;;;;;54.90;23.60;;;;;;;8.76;84.65;100357.34;4987344;28;20034;-73
2021/12/24 12:16:19;;;;;;;40.70;21.42;;;;;;;8.73;84.57;100349.56;4986169;28;20033;-73
2021/12/24 12:18:49;;;;;;;41.17;22.65;;;;;;;8.75;85.05;100350.38;4969168;28;20533;-73
2021/12/24 12:21:34;;;;;;;38.90;23.45;;;;;;;8.76;84.96;100352.97;4964804;28;20390;-73
2021/12/24 12:24:57;;;;;;;49.97;24.63;;;;;;;8.78;85.08;100345.16;4970554;28;20052;-73
2021/12/24 12:26:52;;;;;;;43.30;23.85;;;;;;;8.82;84.81;100346.81;4986715;28;20064;-74
2021/12/24 12:29:20;;;;;;;48.90;25.25;;;;;;;8.91;85.18;100351.94;4971465;28;20085;-73
2021/12/24 12:31:47;;;;;;;46.70;26.98;;;;;;;8.97;85.23;100353.63;4971260;28;20039;-73
2021/12/24 12:34:38;;;;;;;48.05;26.02;;;;;;;9.02;85.04;100351.78;4953172;28;20043;-74
2021/12/24 12:37:44;;;;;;;41.53;25.73;;;;;;;9.06;84.94;100350.88;4967231;28;20041;-73
2021/12/24 12:40:12;;;;;;;45.80;26.20;;;;;;;9.05;84.48;100353.50;4946130;28;20061;-73
2021/12/24 12:42:55;;;;;;;58.58;29.55;;;;;;;9.08;84.80;100350.84;4949221;28;20077;-73
2021/12/24 12:45:42;;;;;;;47.63;26.63;;;;;;;9.09;84.62;100349.97;4950563;28;20046;-73
2021/12/24 12:48:16;;;;;;;42.78;26.77;;;;;;;9.10;84.75;100362.16;4944669;28;20038;-73
2021/12/24 12:50:51;;;;;;;49.58;27.27;;;;;;;9.08;84.57;100354.34;4951645;28;20034;-73
2021/12/24 12:53:30;;;;;;;46.97;27.73;;;;;;;9.04;84.55;100359.59;4956108;28;20031;-73
2021/12/24 12:56:12;;;;;;;43.97;26.70;;;;;;;9.04;84.18;100351.75;4951973;28;20367;-73
2021/12/24 12:58:43;;;;;;;47.55;24.92;;;;;;;9.06;84.57;100348.25;4950142;28;20522;-73
2021/12/24 13:01:17;;;;;;;;;;;;;;;9.16;84.27;100349.00;4939878;28;20031;-72
2021/12/24 13:04:06;;;;;;;37.38;22.25;;;;;;;9.11;83.86;100343.00;4949909;28;19913;-73
2021/12/24 13:06:34;;;;;;;40.17;22.63;;;;;;;9.10;84.42;100354.31;4945654;28;20094;-73
2021/12/24 13:09:04;;;;;;;35.83;20.08;;;;;;;9.01;83.88;100342.25;4942918;29;20031;-73
2021/12/24 13:11:34;;;;;;;41.65;20.60;;;;;;;8.99;83.43;100333.53;4971257;28;20042;-73
2021/12/24 13:14:01;;;;;;;40.70;21.05;;;;;;;8.97;83.53;100327.47;4946755;29;20557;-73
2021/12/24 13:16:39;;;;;;;43.30;20.17;;;;;;;8.96;84.05;100333.59;4949164;28;20031;-73
2021/12/24 13:24:52;;;;;;;35.60;18.92;;;;;;;8.90;84.14;100339.75;4968779;28;20394;-73
2021/12/24 13:27:19;;;;;;;32.28;17.13;;;;;;;8.87;84.45;100341.56;4972775;28;20031;-73
2021/12/24 13:29:45;;;;;;;35.03;18.63;;;;;;;8.85;84.80;100338.97;4946337;28;20479;-73